Time;durP1;ratioP1;P1;durP2;ratioP2;P2;SDS_P1;SDS_P2;PMS_P1;PMS_P2;Temp;Humidity;BMP_temperature;BMP_pressure;BME280_temperature;BME280_humidity;BME280_pressure;Samples;Min_cycle;Max_cycle;Signal;HPM_P1;HPM_P2
2023/01/11 00:00:20;;;;;;;1.07;0.97;;;5.20;97.30;;;;;;4973739;28;20457;-87
2023/01/11 00:02:47;;;;;;;4.03;2.00;;;5.20;97.30;;;;;;4990048;28;20417;-87
2023/01/11 00:05:12;;;;;;;2.13;1.97;;;5.20;97.30;;;;;;4990237;28;20297;-87
2023/01/11 00:07:39;;;;;;;2.07;1.93;;;5.20;97.30;;;;;;4973044;28;20519;-87
2023/01/11 00:10:06;;;;;;;14.33;1.67;;;5.20;97.30;;;;;;5010023;28;20201;-87
2023/01/11 00:12:31;;;;;;;1.10;1.00;;;5.20;97.30;;;;;;4992989;28;20420;-87
2023/01/11 00:14:57;;;;;;;1.63;1.53;;;5.20;97.30;;;;;;4992655;28;20995;-87
2023/01/11 00:17:22;;;;;;;8.20;1.70;;;5.20;97.30;;;;;;4993156;28;20185;-87
2023/01/11 00:19:48;;;;;;;2.23;2.03;;;5.20;97.30;;;;;;4993187;28;20181;-87
2023/01/11 00:22:13;;;;;;;1.47;1.30;;;5.30;97.30;;;;;;4993261;28;20173;-87
2023/01/11 00:24:39;;;;;;;1.47;1.40;;;5.20;97.30;;;;;;4993177;28;20208;-87
2023/01/11 00:27:04;;;;;;;1.40;1.30;;;5.20;97.30;;;;;;4992915;28;20224;-87
2023/01/11 00:29:30;;;;;;;1.00;0.90;;;5.20;97.30;;;;;;4993064;28;20235;-87
2023/01/11 00:31:56;;;;;;;17.23;1.60;;;5.20;97.30;;;;;;4993127;28;20173;-87
2023/01/11 00:34:21;;;;;;;1.17;1.07;;;5.20;97.30;;;;;;4989771;28;20198;-87
2023/01/11 00:36:47;;;;;;;1.20;1.10;;;5.30;97.30;;;;;;4974014;28;20189;-87
2023/01/11 00:39:12;;;;;;;1.20;1.10;;;5.30;97.30;;;;;;4973480;28;20197;-87
2023/01/11 00:50:00;;;;;;;3.40;1.57;;;5.30;97.30;;;;;;4990625;28;20454;-87
2023/01/11 00:52:25;;;;;;;2.57;1.90;;;5.30;97.30;;;;;;4977845;28;20511;-87
2023/01/11 00:54:51;;;;;;;2.77;1.90;;;5.30;97.30;;;;;;4992573;28;20297;-87
2023/01/11 00:57:17;;;;;;;1.20;1.10;;;5.30;97.30;;;;;;5009178;28;20185;-87
2023/01/11 00:59:42;;;;;;;1.53;1.43;;;5.30;97.30;;;;;;5008932;28;20181;-87
2023/01/11 01:02:09;;;;;;;1.47;1.30;;;5.30;97.30;;;;;;5009013;28;20281;-86
2023/01/11 01:04:35;;;;;;;1.20;1.10;;;5.40;97.30;;;;;;5008775;28;20288;-86
2023/01/11 01:07:01;;;;;;;2.23;2.03;;;5.40;97.30;;;;;;5008936;28;20587;-87
2023/01/11 01:09:27;;;;;;;13.13;1.70;;;5.40;97.30;;;;;;5008744;28;20451;-87
2023/01/11 01:11:53;;;;;;;1.10;1.00;;;5.50;97.30;;;;;;5010324;28;20173;-87
2023/01/11 01:14:32;;;;;;;1.00;0.90;;;5.50;97.30;;;;;;5008966;28;20232;-87
2023/01/11 01:17:03;;;;;;;1.00;0.90;;;5.50;97.30;;;;;;4992577;28;20232;-87
2023/01/11 01:19:29;;;;;;;1.53;1.43;;;5.50;97.30;;;;;;5008815;28;20416;-87
2023/01/11 01:21:57;;;;;;;3.07;1.43;;;5.60;97.30;;;;;;5008784;28;20769;-87
2023/01/11 01:24:23;;;;;;;8.53;2.20;;;5.60;97.30;;;;;;5008608;28;20428;-87
2023/01/11 01:26:49;;;;;;;1.20;1.10;;;5.60;97.30;;;;;;5010895;28;20494;-84
2023/01/11 01:29:14;;;;;;;1.53;1.43;;;5.70;97.30;;;;;;5014087;28;20591;-86
2023/01/11 01:31:41;;;;;;;1.57;1.47;;;5.80;97.30;;;;;;5012749;28;20280;-87
2023/01/11 01:34:08;;;;;;;1.43;1.27;;;5.80;97.30;;;;;;5012475;28;20231;-86
2023/01/11 01:36:33;;;;;;;1.10;1.00;;;5.80;97.30;;;;;;5013833;28;20838;-86
2023/01/11 01:38:59;;;;;;;1.00;0.90;;;5.80;97.30;;;;;;4995690;28;20424;-86
2023/01/11 01:41:25;;;;;;;1.00;0.90;;;5.80;97.30;;;;;;4995714;28;20431;-86
2023/01/11 01:43:54;;;;;;;1.07;0.97;;;5.80;97.30;;;;;;4995735;28;20444;-87
2023/01/11 01:46:22;;;;;;;1.20;1.10;;;5.80;97.30;;;;;;4995775;28;20990;-87
2023/01/11 01:48:56;;;;;;;1.10;1.00;;;5.80;97.30;;;;;;4995493;28;20848;-86
2023/01/11 01:51:33;;;;;;;1.33;1.23;;;5.90;97.30;;;;;;4995828;28;20429;-87
2023/01/11 01:54:05;;;;;;;1.00;0.90;;;5.80;97.30;;;;;;4995876;28;20443;-86
2023/01/11 01:56:35;;;;;;;1.10;1.00;;;5.80;97.30;;;;;;5013246;28;20985;-87
2023/01/11 01:59:11;;;;;;;1.00;0.90;;;5.80;97.30;;;;;;5013695;28;20416;-86
2023/01/11 02:01:47;;;;;;;1.00;0.90;;;5.90;97.30;;;;;;5013249;28;20422;-85
2023/01/11 02:04:21;;;;;;;1.00;0.90;;;5.90;97.30;;;;;;5013125;28;20463;-87
2023/01/11 02:06:47;;;;;;;1.40;1.30;;;5.90;97.30;;;;;;4995759;28;20803;-85
2023/01/11 02:09:38;;;;;;;2.40;2.20;;;5.90;97.30;;;;;;5013115;28;20451;-85
2023/01/11 02:12:05;;;;;;;1.40;1.30;;;5.90;97.30;;;;;;4986516;28;20807;-86
2023/01/11 02:14:33;;;;;;;1.20;1.10;;;5.90;97.30;;;;;;4993597;28;20472;-86
2023/01/11 02:16:58;;;;;;;1.43;1.33;;;5.90;97.30;;;;;;4994884;28;20485;-85
2023/01/11 02:19:46;;;;;;;2.40;2.20;;;5.90;97.30;;;;;;5012455;28;20511;-87
2023/01/11 02:22:32;;;;;;;1.10;1.00;;;5.90;97.30;;;;;;4995489;28;20189;-86
2023/01/11 02:25:31;;;;;;;1.30;1.20;;;5.90;97.30;;;;;;4994580;28;20439;-84
2023/01/11 02:28:09;;;;;;;1.20;1.10;;;5.80;97.30;;;;;;4990393;28;20431;-86
2023/01/11 02:30:50;;;;;;;1.20;1.10;;;5.80;97.30;;;;;;4994694;28;20822;-86
2023/01/11 02:33:24;;;;;;;1.30;1.20;;;5.80;97.30;;;;;;4995074;28;20462;-86
2023/01/11 02:36:18;;;;;;;1.23;1.13;;;5.80;97.30;;;;;;4995948;28;20425;-86
2023/01/11 02:39:02;;;;;;;1.10;1.00;;;5.80;97.30;;;;;;4975018;28;20429;-83
2023/01/11 02:45:17;;;;;;;0.93;0.83;;;5.70;97.30;;;;;;4980765;28;20889;-86
2023/01/11 02:48:35;;;;;;;1.33;1.23;;;5.70;97.30;;;;;;4975832;28;20571;-85
2023/01/11 02:51:11;;;;;;;0.90;0.80;;;5.70;97.30;;;;;;4931814;28;20452;-86
2023/01/11 02:53:53;;;;;;;1.20;1.10;;;5.70;97.30;;;;;;4975751;28;20413;-85
2023/01/11 02:56:24;;;;;;;1.50;1.40;;;5.70;97.30;;;;;;4991628;28;20479;-85
2023/01/11 02:58:51;;;;;;;7.20;1.30;;;5.70;97.30;;;;;;4975637;28;20500;-86
2023/01/11 03:01:18;;;;;;;1.50;1.40;;;5.70;97.30;;;;;;4992645;28;20409;-86
2023/01/11 03:03:43;;;;;;;1.10;1.00;;;5.70;97.30;;;;;;4992911;28;20424;-85
2023/01/11 03:06:17;;;;;;;1.40;1.30;;;5.70;97.30;;;;;;4975152;28;20932;-85
2023/01/11 03:08:54;;;;;;;1.03;1.03;;;5.70;97.30;;;;;;4975334;28;20674;-84
2023/01/11 03:14:43;;;;;;;1.10;1.00;;;5.80;97.30;;;;;;4992468;28;20492;-85
2023/01/11 03:17:40;;;;;;;1.20;1.10;;;5.80;97.30;;;;;;4975497;28;20421;-86
2023/01/11 03:20:18;;;;;;;1.23;1.13;;;5.80;97.30;;;;;;4975054;28;20417;-86
2023/01/11 03:23:08;;;;;;;1.73;1.63;;;5.80;97.30;;;;;;4975305;28;20475;-85
2023/01/11 03:25:55;;;;;;;1.03;0.93;;;5.80;97.30;;;;;;4974263;28;20507;-86
2023/01/11 03:28:41;;;;;;;1.00;0.90;;;5.80;97.30;;;;;;4992090;28;20496;-85
2023/01/11 03:31:15;;;;;;;1.10;1.00;;;5.80;97.30;;;;;;4982489;28;20424;-85
2023/01/11 03:33:49;;;;;;;1.00;0.90;;;5.90;97.30;;;;;;5029887;28;20543;-85
2023/01/11 03:36:31;;;;;;;0.90;0.80;;;5.90;97.30;;;;;;5011205;28;20605;-84
2023/01/11 03:39:08;;;;;;;1.20;1.10;;;6.00;97.30;;;;;;4992867;28;20432;-85
2023/01/11 03:41:37;;;;;;;1.10;1.00;;;6.00;97.30;;;;;;4994278;28;20430;-84
2023/01/11 03:44:06;;;;;;;1.00;0.90;;;6.00;97.30;;;;;;4994846;28;20458;-85
2023/01/11 03:46:37;;;;;;;1.00;0.90;;;6.10;97.30;;;;;;4994762;28;20424;-85
2023/01/11 03:49:09;;;;;;;0.97;0.87;;;6.10;97.30;;;;;;4994078;28;20498;-85
2023/01/11 03:51:41;;;;;;;5.03;1.50;;;6.10;97.30;;;;;;4993569;28;20915;-86
2023/01/11 03:54:10;;;;;;;1.00;0.90;;;6.10;97.30;;;;;;4993694;28;20460;-85
2023/01/11 03:56:46;;;;;;;1.00;0.90;;;6.10;97.30;;;;;;4993978;28;20467;-85
2023/01/11 03:59:12;;;;;;;1.00;0.90;;;6.10;97.30;;;;;;4993741;28;20420;-86
2023/01/11 04:01:38;;;;;;;1.10;1.00;;;6.10;97.30;;;;;;4992366;28;20424;-86
2023/01/11 04:04:03;;;;;;;4.13;1.30;;;6.10;97.30;;;;;;5009624;28;20197;-86
2023/01/11 04:06:31;;;;;;;1.13;1.03;;;6.10;97.30;;;;;;5008343;28;20472;-86
2023/01/11 04:08:56;;;;;;;1.70;1.60;;;6.10;97.30;;;;;;5009570;28;20296;-85
2023/01/11 04:11:22;;;;;;;0.93;0.83;;;6.10;97.30;;;;;;4993302;28;20436;-86
2023/01/11 04:13:47;;;;;;;0.93;0.83;;;6.10;97.30;;;;;;5011402;28;20228;-85
2023/01/11 04:16:12;;;;;;;0.83;0.73;;;6.20;97.30;;;;;;5026295;23;20715;-86
2023/01/11 04:18:38;;;;;;;1.00;0.90;;;6.20;97.30;;;;;;4992304;28;20197;-85
2023/01/11 04:21:04;;;;;;;1.10;1.00;;;6.20;97.30;;;;;;4993141;28;20265;-88
2023/01/11 04:23:32;;;;;;;2.40;2.00;;;6.20;97.30;;;;;;5011477;28;20177;-86
2023/01/11 04:25:57;;;;;;;2.27;2.07;;;6.20;97.30;;;;;;4993778;28;20566;-87
2023/01/11 04:28:23;;;;;;;15.23;3.13;;;6.20;97.30;;;;;;4993594;28;20427;-87
2023/01/11 04:30:48;;;;;;;1.20;1.10;;;6.20;97.30;;;;;;4993582;28;20247;-86
2023/01/11 04:33:14;;;;;;;1.07;0.97;;;6.20;97.30;;;;;;4993629;28;20269;-87
2023/01/11 04:35:39;;;;;;;1.00;0.90;;;6.10;97.30;;;;;;4993789;28;20201;-86
2023/01/11 04:38:05;;;;;;;1.10;1.00;;;6.10;97.30;;;;;;4994098;28;20177;-88
2023/01/11 04:40:30;;;;;;;1.00;0.90;;;6.10;97.30;;;;;;4994246;28;20220;-87
2023/01/11 04:43:00;;;;;;;1.43;1.33;;;6.10;97.30;;;;;;4994001;28;20181;-87
2023/01/11 04:45:26;;;;;;;0.90;0.80;;;6.10;97.30;;;;;;4994023;28;20197;-85
2023/01/11 04:47:54;;;;;;;2.67;1.37;;;6.10;97.30;;;;;;4993750;28;20424;-88
2023/01/11 04:50:20;;;;;;;1.67;1.07;;;6.00;97.30;;;;;;4994045;28;20538;-88
2023/01/11 04:52:45;;;;;;;0.90;0.80;;;6.00;97.30;;;;;;4994228;28;20911;-87
2023/01/11 04:55:10;;;;;;;1.40;1.17;;;6.00;97.30;;;;;;4993015;28;20201;-89
2023/01/11 04:57:36;;;;;;;1.20;1.10;;;5.90;97.30;;;;;;4993736;28;20190;-87
2023/01/11 05:00:07;;;;;;;0.80;0.70;;;5.90;97.30;;;;;;4994852;28;20239;-87
2023/01/11 05:02:33;;;;;;;1.60;1.40;;;5.90;97.30;;;;;;4997710;28;20695;-87
2023/01/11 05:04:58;;;;;;;1.20;1.10;;;5.90;97.30;;;;;;4997533;28;20727;-86
2023/01/11 05:07:23;;;;;;;1.00;0.90;;;5.90;97.30;;;;;;4997190;28;20213;-87
2023/01/11 05:09:49;;;;;;;0.90;0.80;;;5.90;97.30;;;;;;4997600;28;20212;-87
2023/01/11 05:12:14;;;;;;;1.10;1.00;;;5.90;97.30;;;;;;5015694;28;20621;-87
2023/01/11 05:14:40;;;;;;;1.93;1.40;;;6.00;97.30;;;;;;4994151;28;20462;-86
2023/01/11 05:17:05;;;;;;;0.90;0.80;;;6.00;97.30;;;;;;4993899;28;20180;-89
2023/01/11 05:19:31;;;;;;;1.63;1.10;;;6.00;97.30;;;;;;4997353;28;20336;-88
2023/01/11 05:21:56;;;;;;;1.30;1.20;;;6.00;97.30;;;;;;4996636;28;20174;-88
2023/01/11 05:24:22;;;;;;;1.00;0.90;;;6.00;97.30;;;;;;4997931;28;20174;-90
2023/01/11 05:26:49;;;;;;;1.20;1.10;;;6.00;97.30;;;;;;4994276;28;20182;-86
2023/01/11 05:29:19;;;;;;;1.10;1.00;;;6.00;97.30;;;;;;4994017;28;20206;-88
2023/01/11 05:31:45;;;;;;;2.97;1.40;;;6.00;97.30;;;;;;4993875;28;20939;-86
2023/01/11 05:34:14;;;;;;;1.10;1.00;;;6.00;97.30;;;;;;4994112;28;20432;-87
2023/01/11 05:36:41;;;;;;;0.90;0.80;;;6.00;97.30;;;;;;4993865;28;20265;-87
2023/01/11 05:39:06;;;;;;;1.07;0.97;;;6.00;97.30;;;;;;4993840;28;20431;-88
2023/01/11 05:41:32;;;;;;;1.27;1.20;;;6.00;97.30;;;;;;4995129;28;20409;-87
2023/01/11 05:46:43;;;;;;;1.30;1.20;;;6.00;97.30;;;;;;4990702;28;20452;-87
2023/01/11 05:49:10;;;;;;;1.30;1.20;;;6.00;97.30;;;;;;4984082;28;20983;-87
2023/01/11 05:51:37;;;;;;;1.10;1.00;;;6.00;97.30;;;;;;4986575;28;20441;-88
2023/01/11 05:54:04;;;;;;;1.00;0.90;;;6.00;97.30;;;;;;4986842;28;20425;-87
2023/01/11 05:56:30;;;;;;;1.87;1.43;;;5.90;97.30;;;;;;4980784;28;20449;-88
2023/01/11 05:58:56;;;;;;;1.00;0.90;;;6.00;97.30;;;;;;4977038;28;20425;-86
2023/01/11 06:01:23;;;;;;;1.00;0.90;;;6.00;97.30;;;;;;4987429;28;20209;-88
2023/01/11 06:03:48;;;;;;;1.23;1.13;;;6.00;97.30;;;;;;4994378;28;20217;-87
2023/01/11 06:06:15;;;;;;;1.20;1.10;;;6.10;97.30;;;;;;4992632;28;20695;-87
2023/01/11 06:08:41;;;;;;;1.17;1.07;;;6.10;97.30;;;;;;4991949;28;20216;-88
2023/01/11 06:11:06;;;;;;;1.00;0.90;;;6.10;97.30;;;;;;4991676;28;20500;-87
2023/01/11 06:13:32;;;;;;;1.20;1.10;;;6.10;97.30;;;;;;4976671;28;20197;-84
2023/01/11 06:16:13;;;;;;;4.53;1.30;;;6.20;97.30;;;;;;5005198;28;20212;-87
2023/01/11 06:18:41;;;;;;;1.20;1.10;;;6.20;97.30;;;;;;4983893;28;20440;-89
2023/01/11 06:21:07;;;;;;;2.10;1.43;;;6.20;97.30;;;;;;4999274;28;20415;-86
2023/01/11 06:23:35;;;;;;;21.73;2.10;;;6.30;97.30;;;;;;5019238;28;20407;-87
2023/01/11 06:26:06;;;;;;;1.27;1.17;;;6.30;97.30;;;;;;5007387;28;20423;-86
2023/01/11 06:28:32;;;;;;;1.57;1.47;;;6.30;97.30;;;;;;5011435;28;20400;-86
2023/01/11 06:30:58;;;;;;;1.00;0.90;;;6.30;97.30;;;;;;4991074;28;20511;-86
2023/01/11 06:33:26;;;;;;;1.20;1.10;;;6.20;97.30;;;;;;4997990;28;20178;-88
2023/01/11 06:35:52;;;;;;;1.57;1.20;;;6.30;97.30;;;;;;4994560;28;20444;-88
2023/01/11 06:38:19;;;;;;;2.57;1.50;;;6.30;97.30;;;;;;4994118;28;20453;-86
2023/01/11 06:40:55;;;;;;;1.30;1.20;;;6.30;97.30;;;;;;4994463;28;20420;-87
2023/01/11 06:43:22;;;;;;;1.03;0.93;;;6.30;97.30;;;;;;4995312;28;20523;-89
2023/01/11 06:45:47;;;;;;;1.77;1.67;;;6.40;97.30;;;;;;4995916;28;20447;-87
2023/01/11 06:48:13;;;;;;;1.13;1.03;;;6.40;97.30;;;;;;5013336;28;20679;-87
2023/01/11 06:50:39;;;;;;;1.00;0.90;;;6.40;97.30;;;;;;5012757;28;20266;-89
2023/01/11 06:53:04;;;;;;;1.10;1.00;;;6.40;97.30;;;;;;4995073;28;20597;-87
2023/01/11 06:55:30;;;;;;;1.30;1.20;;;6.40;97.30;;;;;;4996018;28;20287;-89
2023/01/11 06:57:56;;;;;;;1.43;1.27;;;6.40;97.30;;;;;;4992564;28;20649;-87
2023/01/11 07:00:22;;;;;;;3.73;1.60;;;6.30;97.30;;;;;;4995585;28;20424;-86
2023/01/11 07:02:48;;;;;;;1.20;1.07;;;6.30;97.30;;;;;;5013285;28;20702;-88
2023/01/11 07:05:14;;;;;;;1.17;1.07;;;6.30;97.30;;;;;;4995903;28;20467;-88
2023/01/11 07:07:41;;;;;;;1.77;1.70;;;6.30;97.30;;;;;;4995294;28;20907;-87
2023/01/11 07:10:13;;;;;;;1.20;1.10;;;6.20;97.30;;;;;;4995630;28;20550;-86
2023/01/11 07:12:39;;;;;;;1.37;1.30;;;6.20;97.30;;;;;;5012763;28;20428;-89
2023/01/11 07:15:07;;;;;;;1.00;0.90;;;6.20;97.30;;;;;;4989366;28;20481;-88
2023/01/11 07:17:32;;;;;;;1.43;1.33;;;6.20;97.30;;;;;;4972329;28;20467;-87
2023/01/11 07:19:58;;;;;;;1.23;1.13;;;6.20;97.30;;;;;;4972598;28;20825;-87
2023/01/11 07:22:24;;;;;;;1.20;1.10;;;6.20;97.30;;;;;;4988606;28;20178;-87
2023/01/11 07:24:50;;;;;;;1.10;1.00;;;6.20;97.30;;;;;;4989973;28;20629;-87
2023/01/11 07:27:15;;;;;;;1.20;1.10;;;6.30;97.30;;;;;;4987049;28;20190;-88
2023/01/11 07:29:41;;;;;;;1.00;0.90;;;6.30;97.30;;;;;;4989327;28;20519;-86
2023/01/11 07:32:07;;;;;;;1.40;1.30;;;6.30;97.30;;;;;;4985026;28;20227;-86
2023/01/11 07:34:33;;;;;;;1.07;1.03;;;6.40;97.30;;;;;;4983214;28;20216;-87
2023/01/11 07:36:59;;;;;;;1.10;1.00;;;6.40;97.30;;;;;;4993234;28;20409;-87
2023/01/11 07:39:24;;;;;;;1.03;0.93;;;6.50;97.30;;;;;;4991275;28;20951;-87
2023/01/11 07:44:34;;;;;;;0.80;0.70;;;6.60;97.30;;;;;;4991828;28;20224;-87
2023/01/11 07:46:59;;;;;;;0.87;0.77;;;6.70;97.30;;;;;;4981978;28;20421;-87
2023/01/11 07:49:24;;;;;;;1.30;1.20;;;6.90;97.30;;;;;;4975247;28;20583;-85
2023/01/11 07:51:53;;;;;;;1.03;0.93;;;6.90;97.30;;;;;;4975517;28;20225;-86
2023/01/11 07:54:18;;;;;;;2.63;1.30;;;7.00;97.30;;;;;;4974878;28;20202;-85
2023/01/11 07:56:44;;;;;;;6.03;1.63;;;7.10;97.30;;;;;;4975080;28;20417;-87
2023/01/11 07:59:09;;;;;;;1.00;0.90;;;7.10;97.30;;;;;;4975506;28;20185;-86
2023/01/11 08:01:35;;;;;;;0.90;0.80;;;7.10;97.30;;;;;;4974776;28;20257;-88
2023/01/11 08:04:01;;;;;;;1.00;0.90;;;7.20;97.30;;;;;;4981946;28;20214;-87
2023/01/11 08:06:27;;;;;;;1.00;0.90;;;7.20;97.30;;;;;;4982575;28;20480;-86
2023/01/11 08:08:52;;;;;;;1.30;1.27;;;7.30;97.30;;;;;;4986087;28;20451;-87
2023/01/11 08:16:46;;;;;;;1.10;1.00;;;7.40;97.30;;;;;;4989619;28;20471;-88
2023/01/11 08:19:11;;;;;;;1.10;1.10;;;7.50;97.30;;;;;;4990164;28;20444;-88
2023/01/11 08:21:37;;;;;;;1.47;1.37;;;7.50;97.30;;;;;;4987471;28;20761;-85
2023/01/11 08:24:03;;;;;;;1.00;0.90;;;7.50;97.30;;;;;;4979010;28;20240;-85
2023/01/11 08:26:28;;;;;;;1.40;1.20;;;7.60;97.30;;;;;;4978737;28;20209;-86
2023/01/11 08:28:54;;;;;;;1.13;1.03;;;7.60;97.30;;;;;;4988013;28;20654;-90
2023/01/11 08:31:20;;;;;;;1.00;0.90;;;7.60;97.30;;;;;;4990326;28;20182;-88
2023/01/11 08:33:47;;;;;;;1.10;1.00;;;7.70;97.30;;;;;;4990837;28;20170;-85
2023/01/11 08:36:13;;;;;;;1.10;1.00;;;7.70;97.30;;;;;;4984592;28;20448;-88
2023/01/11 08:38:39;;;;;;;1.00;0.90;;;7.70;97.30;;;;;;4995782;28;20419;-88
2023/01/11 08:41:09;;;;;;;1.00;0.90;;;7.80;97.30;;;;;;4999660;28;20170;-85
2023/01/11 08:43:35;;;;;;;0.97;0.90;;;7.80;97.30;;;;;;5000246;28;20424;-85
2023/01/11 08:46:01;;;;;;;1.20;1.10;;;7.90;97.30;;;;;;4990211;28;20444;-85
2023/01/11 08:48:26;;;;;;;1.40;1.30;;;7.90;97.30;;;;;;4991297;28;20436;-86
2023/01/11 08:50:51;;;;;;;1.00;0.90;;;8.00;97.30;;;;;;4993301;28;20239;-85
2023/01/11 08:53:19;;;;;;;1.50;1.40;;;8.00;97.30;;;;;;4997493;28;20253;-85
2023/01/11 08:55:47;;;;;;;1.40;1.30;;;8.00;97.30;;;;;;4994782;28;20200;-87
2023/01/11 08:58:12;;;;;;;1.10;1.00;;;8.10;97.30;;;;;;4997707;28;20478;-85
2023/01/11 09:00:38;;;;;;;1.20;1.10;;;8.10;97.30;;;;;;4984163;28;21000;-85
2023/01/11 09:03:10;;;;;;;1.20;1.10;;;8.20;97.30;;;;;;4982689;28;20182;-87
2023/01/11 09:05:39;;;;;;;1.20;1.10;;;8.30;97.30;;;;;;4982384;28;20205;-86
2023/01/11 09:08:21;;;;;;;0.90;0.80;;;8.30;97.30;;;;;;5000484;28;20417;-85
2023/01/11 09:10:49;;;;;;;1.00;0.90;;;8.40;97.30;;;;;;4982267;28;20989;-87
2023/01/11 09:13:30;;;;;;;11.43;1.70;;;8.40;97.30;;;;;;5001371;28;20432;-85
2023/01/11 09:15:59;;;;;;;1.00;0.90;;;8.40;97.30;;;;;;4993305;28;20478;-85
2023/01/11 09:18:52;;;;;;;0.90;0.90;;;8.50;97.30;;;;;;4999300;28;20432;-85
2023/01/11 09:21:20;;;;;;;1.00;0.90;;;8.50;97.30;;;;;;4987115;28;20441;-85
2023/01/11 09:23:48;;;;;;;0.90;0.80;;;8.60;97.30;;;;;;4998499;28;20837;-85
2023/01/11 09:26:38;;;;;;;0.87;0.77;;;8.60;97.30;;;;;;4998506;28;20437;-87
2023/01/11 09:29:11;;;;;;;0.97;0.87;;;8.60;97.30;;;;;;4984391;28;20464;-86
2023/01/11 09:31:40;;;;;;;4.87;1.83;;;8.60;97.30;;;;;;4999017;28;20439;-86
2023/01/11 09:34:28;;;;;;;0.90;0.80;;;8.70;97.30;;;;;;4999655;28;20421;-88
2023/01/11 09:37:02;;;;;;;0.90;0.80;;;8.70;97.30;;;;;;5008219;28;20428;-85
2023/01/11 09:39:28;;;;;;;1.00;0.90;;;8.70;97.30;;;;;;5002354;28;20463;-86
2023/01/11 09:42:21;;;;;;;0.83;0.73;;;8.70;97.30;;;;;;5002587;28;20424;-87
2023/01/11 09:44:57;;;;;;;1.03;1.00;;;8.70;97.30;;;;;;5002482;28;20208;-85
2023/01/11 09:48:16;;;;;;;1.33;1.00;;;8.70;97.30;;;;;;4999205;28;20428;-85
2023/01/11 09:53:51;;;;;;;0.90;0.80;;;8.80;97.30;;;;;;5006146;28;20494;-87
2023/01/11 09:56:23;;;;;;;0.67;0.63;;;8.80;97.30;;;;;;5015177;28;20513;-88
2023/01/11 09:58:58;;;;;;;1.17;1.13;;;8.90;97.30;;;;;;4990187;28;20435;-86
2023/01/11 10:02:04;;;;;;;0.93;0.83;;;8.90;97.30;;;;;;5015917;28;20841;-85
2023/01/11 10:04:58;;;;;;;0.97;0.87;;;8.90;97.30;;;;;;5016163;28;20440;-86
2023/01/11 10:07:53;;;;;;;0.90;0.80;;;9.00;97.30;;;;;;4999187;28;20904;-85
2023/01/11 10:10:52;;;;;;;1.00;0.90;;;9.00;97.30;;;;;;4998954;28;20456;-85
2023/01/11 10:13:56;;;;;;;1.17;1.07;;;9.00;97.30;;;;;;5017068;28;20420;-86
2023/01/11 10:16:40;;;;;;;1.00;0.90;;;9.10;97.30;;;;;;5025099;23;20515;-86
2023/01/11 10:19:15;;;;;;;0.87;0.77;;;9.10;97.30;;;;;;4970435;28;20454;-85
2023/01/11 10:21:55;;;;;;;1.07;0.97;;;9.10;97.30;;;;;;4976526;28;20459;-85
2023/01/11 10:24:45;;;;;;;0.90;0.80;;;9.10;97.30;;;;;;4977524;28;20435;-85
2023/01/11 10:27:28;;;;;;;1.40;1.30;;;9.10;97.30;;;;;;4957564;28;20421;-83
2023/01/11 10:33:00;;;;;;;0.90;0.80;;;9.20;97.30;;;;;;4975217;28;20452;-84
2023/01/11 10:38:37;;;;;;;1.10;1.00;;;9.20;97.30;;;;;;4975139;28;20450;-85
2023/01/11 10:41:32;;;;;;;1.30;1.20;;;9.20;97.30;;;;;;4957906;28;20469;-84
2023/01/11 10:44:07;;;;;;;1.00;0.90;;;9.30;97.30;;;;;;4945391;28;20497;-85
2023/01/11 10:46:38;;;;;;;1.00;0.90;;;9.30;97.30;;;;;;4957239;28;20434;-85
2023/01/11 10:49:42;;;;;;;1.17;1.00;;;9.30;97.30;;;;;;4957403;28;20450;-86
2023/01/11 10:52:40;;;;;;;4.20;1.57;;;9.30;97.30;;;;;;4957743;28;20432;-86
2023/01/11 10:55:15;;;;;;;1.00;0.90;;;9.30;97.30;;;;;;4957232;28;20525;-85
2023/01/11 10:57:58;;;;;;;0.90;0.80;;;9.40;97.30;;;;;;4974675;28;20579;-85
2023/01/11 11:00:53;;;;;;;0.90;0.80;;;9.40;97.30;;;;;;4957340;28;20429;-86
2023/01/11 11:03:33;;;;;;;0.90;0.90;;;9.40;97.30;;;;;;4957455;28;20910;-84
2023/01/11 11:06:07;;;;;;;1.73;1.20;;;9.40;97.30;;;;;;4974347;28;20434;-85
2023/01/11 11:08:48;;;;;;;1.10;1.00;;;9.50;97.30;;;;;;4957429;28;20426;-85
2023/01/11 11:11:21;;;;;;;0.90;0.80;;;9.50;97.30;;;;;;4956401;28;20418;-85
2023/01/11 11:13:55;;;;;;;3.17;1.20;;;9.50;97.30;;;;;;4954584;29;20410;-86
2023/01/11 11:16:26;;;;;;;1.00;0.90;;;9.50;97.30;;;;;;4953436;29;20465;-84
2023/01/11 11:18:54;;;;;;;1.00;0.90;;;9.50;97.30;;;;;;4937885;29;20501;-85
2023/01/11 11:21:29;;;;;;;1.00;0.90;;;9.40;97.30;;;;;;4937795;29;20419;-86
2023/01/11 11:23:59;;;;;;;1.17;1.07;;;9.40;97.30;;;;;;4937973;29;20418;-86
2023/01/11 11:26:34;;;;;;;0.97;0.87;;;9.40;97.30;;;;;;4937549;29;20449;-84
2023/01/11 11:29:06;;;;;;;1.30;1.20;;;9.30;97.30;;;;;;4936832;29;20486;-85
2023/01/11 11:31:35;;;;;;;1.00;0.90;;;9.20;97.30;;;;;;4953279;29;20423;-85
2023/01/11 11:34:13;;;;;;;1.00;0.90;;;9.10;97.30;;;;;;4954607;28;20410;-85
2023/01/11 11:36:44;;;;;;;0.77;0.70;;;9.10;97.30;;;;;;4955645;28;20636;-84
2023/01/11 11:39:30;;;;;;;0.80;0.70;;;9.00;97.30;;;;;;4955837;28;20485;-84
2023/01/11 11:42:03;;;;;;;0.93;0.83;;;8.90;97.30;;;;;;4973084;28;20414;-85
2023/01/11 11:44:29;;;;;;;1.00;0.90;;;8.90;97.30;;;;;;4955750;28;20839;-85
2023/01/11 11:47:00;;;;;;;1.20;1.10;;;8.80;97.30;;;;;;4955509;28;20565;-85
2023/01/11 11:49:26;;;;;;;1.03;0.93;;;8.80;97.30;;;;;;4955699;28;20249;-85
2023/01/11 11:51:53;;;;;;;1.73;1.30;;;8.80;97.30;;;;;;4955399;28;20791;-85
2023/01/11 11:54:29;;;;;;;0.90;0.80;;;8.70;97.30;;;;;;4973016;28;20413;-85
2023/01/11 11:56:57;;;;;;;0.80;0.70;;;8.80;97.30;;;;;;4955147;28;20438;-85
2023/01/11 11:59:27;;;;;;;1.00;0.90;;;8.70;97.30;;;;;;4955505;28;20457;-85
2023/01/11 12:02:02;;;;;;;0.90;0.80;;;8.70;97.30;;;;;;4954964;28;20956;-85
2023/01/11 12:04:41;;;;;;;1.40;1.30;;;8.70;97.30;;;;;;4955859;28;20417;-85
2023/01/11 12:07:17;;;;;;;0.90;0.80;;;8.70;97.30;;;;;;4955272;28;20553;-85
2023/01/11 12:10:04;;;;;;;1.00;0.90;;;8.80;97.30;;;;;;4954734;28;20547;-86
2023/01/11 12:12:31;;;;;;;1.97;1.73;;;8.80;97.30;;;;;;4955013;28;20457;-85
2023/01/11 12:15:15;;;;;;;1.20;1.10;;;8.80;97.30;;;;;;4955319;28;20457;-85
2023/01/11 12:17:40;;;;;;;0.87;0.77;;;8.80;97.30;;;;;;4955288;28;20461;-85
2023/01/11 12:20:21;;;;;;;1.83;1.73;;;8.80;97.30;;;;;;4955542;28;20418;-86
2023/01/11 12:23:06;;;;;;;1.00;0.90;;;8.80;97.30;;;;;;4972104;28;20549;-86
2023/01/11 12:25:39;;;;;;;1.00;0.90;;;8.80;97.30;;;;;;4972866;28;20468;-87
2023/01/11 12:28:27;;;;;;;1.27;1.17;;;8.80;97.30;;;;;;4956636;28;20496;-85
2023/01/11 12:31:03;;;;;;;0.90;0.80;;;8.80;97.30;;;;;;4956552;28;20988;-86
2023/01/11 12:33:42;;;;;;;1.43;1.33;;;8.90;97.30;;;;;;4956314;28;20434;-85
2023/01/11 12:36:20;;;;;;;1.10;1.00;;;8.90;97.30;;;;;;4960846;28;20426;-86
2023/01/11 12:39:05;;;;;;;1.00;0.90;;;8.90;97.30;;;;;;4979249;28;20433;-86
2023/01/11 12:41:54;;;;;;;0.80;0.70;;;8.90;97.30;;;;;;4980283;28;20916;-84
2023/01/11 12:44:37;;;;;;;1.43;1.37;;;8.90;97.30;;;;;;4955499;28;20449;-86
2023/01/11 12:47:19;;;;;;;1.00;0.90;;;8.80;97.30;;;;;;4955171;28;20446;-86
2023/01/11 12:49:54;;;;;;;1.00;0.90;;;8.80;97.30;;;;;;4955462;28;20480;-87
2023/01/11 12:53:02;;;;;;;1.10;1.00;;;8.90;97.30;;;;;;4955696;28;20936;-86
2023/01/11 12:55:39;;;;;;;1.47;1.40;;;8.90;97.30;;;;;;4972875;28;20940;-83
2023/01/11 12:58:26;;;;;;;1.20;1.10;;;8.80;97.30;;;;;;4955958;28;20543;-87
2023/01/11 13:01:19;;;;;;;1.00;0.90;;;8.90;97.30;;;;;;4955877;28;20422;-86
2023/01/11 13:03:54;;;;;;;1.47;0.90;;;8.90;97.30;;;;;;4955466;28;20802;-86
2023/01/11 13:06:33;;;;;;;1.17;1.10;;;8.90;97.30;;;;;;4955381;28;20429;-87
2023/01/11 13:09:04;;;;;;;1.10;0.90;;;8.90;97.30;;;;;;4955706;28;20449;-87
2023/01/11 13:11:50;;;;;;;1.00;0.90;;;8.90;97.30;;;;;;4972800;28;20801;-86
2023/01/11 13:14:38;;;;;;;0.90;0.80;;;8.90;97.30;;;;;;4972798;28;20409;-87
2023/01/11 13:17:23;;;;;;;0.90;0.80;;;8.90;97.30;;;;;;4954994;28;20497;-86
2023/01/11 13:19:54;;;;;;;0.93;0.83;;;8.90;97.30;;;;;;4955437;28;20422;-85
2023/01/11 13:22:23;;;;;;;4.20;2.03;;;8.90;97.30;;;;;;4957840;28;20780;-87
2023/01/11 13:24:50;;;;;;;0.90;0.80;;;8.90;97.30;;;;;;4958980;28;20418;-86
2023/01/11 13:27:21;;;;;;;0.90;0.80;;;8.90;97.30;;;;;;4959211;28;20425;-87
2023/01/11 13:29:49;;;;;;;0.90;0.80;;;9.00;97.30;;;;;;4958555;28;20507;-86
2023/01/11 13:32:20;;;;;;;0.93;0.83;;;8.90;97.30;;;;;;4958661;28;20422;-87
2023/01/11 13:34:54;;;;;;;0.90;0.80;;;8.90;97.30;;;;;;4958893;28;20421;-86
2023/01/11 13:37:38;;;;;;;1.33;1.23;;;8.90;97.30;;;;;;4957785;28;20532;-87
2023/01/11 13:40:23;;;;;;;0.80;0.70;;;9.00;97.30;;;;;;4958274;28;20834;-87
2023/01/11 13:43:00;;;;;;;1.43;0.90;;;8.90;97.30;;;;;;4957895;28;20885;-86
2023/01/11 13:45:30;;;;;;;0.90;0.80;;;8.90;97.30;;;;;;4958058;28;20441;-87
2023/01/11 13:48:04;;;;;;;1.20;1.10;;;8.90;97.30;;;;;;4958446;28;20446;-87
2023/01/11 13:50:47;;;;;;;1.10;1.00;;;8.90;97.30;;;;;;4958837;28;20512;-86
2023/01/11 13:53:40;;;;;;;1.00;0.90;;;8.90;97.30;;;;;;4958315;28;20418;-87
2023/01/11 13:56:16;;;;;;;1.13;1.03;;;8.90;97.30;;;;;;4975797;28;20452;-87
2023/01/11 13:58:49;;;;;;;1.53;1.30;;;8.90;97.30;;;;;;4958502;28;20976;-87